sensor_id;sensor_type;location;lat;lon;timestamp;P1;durP1;ratioP1;P2;durP2;ratioP2
75377;SDS011;63959;51.960;5.886;2022-12-18T00:01:35;57.20;;;19.30;;
75377;SDS011;63959;51.960;5.886;2022-12-18T00:04:05;65.03;;;23.50;;
75377;SDS011;63959;51.960;5.886;2022-12-18T00:06:37;45.80;;;15.02;;
75377;SDS011;63959;51.960;5.886;2022-12-18T00:09:06;53.40;;;18.58;;
75377;SDS011;63959;51.960;5.886;2022-12-18T00:11:38;65.78;;;23.25;;
75377;SDS011;63959;51.960;5.886;2022-12-18T00:14:08;62.38;;;21.65;;
75377;SDS011;63959;51.960;5.886;2022-12-18T00:16:37;65.35;;;21.45;;
75377;SDS011;63959;51.960;5.886;2022-12-18T00:19:06;36.33;;;12.93;;
75377;SDS011;63959;51.960;5.886;2022-12-18T00:21:36;62.95;;;22.58;;
75377;SDS011;63959;51.960;5.886;2022-12-18T00:24:05;62.50;;;22.10;;
75377;SDS011;63959;51.960;5.886;2022-12-18T00:26:40;58.90;;;22.33;;
75377;SDS011;63959;51.960;5.886;2022-12-18T00:29:11;66.90;;;23.05;;
75377;SDS011;63959;51.960;5.886;2022-12-18T00:31:42;63.03;;;22.50;;
75377;SDS011;63959;51.960;5.886;2022-12-18T00:34:13;58.58;;;23.67;;
75377;SDS011;63959;51.960;5.886;2022-12-18T00:36:44;66.00;;;24.42;;
75377;SDS011;63959;51.960;5.886;2022-12-18T00:39:13;60.88;;;24.10;;
75377;SDS011;63959;51.960;5.886;2022-12-18T00:41:46;67.35;;;25.65;;
75377;SDS011;63959;51.960;5.886;2022-12-18T00:44:28;58.78;;;22.35;;
75377;SDS011;63959;51.960;5.886;2022-12-18T00:46:57;51.05;;;17.60;;
75377;SDS011;63959;51.960;5.886;2022-12-18T00:49:30;50.58;;;19.35;;
75377;SDS011;63959;51.960;5.886;2022-12-18T00:51:59;59.92;;;22.70;;
75377;SDS011;63959;51.960;5.886;2022-12-18T00:54:28;63.03;;;23.27;;
75377;SDS011;63959;51.960;5.886;2022-12-18T00:57:00;44.15;;;15.32;;
75377;SDS011;63959;51.960;5.886;2022-12-18T00:59:29;53.88;;;21.85;;
75377;SDS011;63959;51.960;5.886;2022-12-18T01:02:00;58.25;;;22.45;;
75377;SDS011;63959;51.960;5.886;2022-12-18T01:04:37;50.38;;;17.60;;
75377;SDS011;63959;51.960;5.886;2022-12-18T01:07:07;51.03;;;19.60;;
75377;SDS011;63959;51.960;5.886;2022-12-18T01:09:39;54.75;;;22.05;;
75377;SDS011;63959;51.960;5.886;2022-12-18T01:12:13;54.83;;;19.77;;
75377;SDS011;63959;51.960;5.886;2022-12-18T01:14:50;56.30;;;21.15;;
75377;SDS011;63959;51.960;5.886;2022-12-18T01:17:20;54.72;;;22.50;;
75377;SDS011;63959;51.960;5.886;2022-12-18T01:19:56;55.38;;;20.17;;
75377;SDS011;63959;51.960;5.886;2022-12-18T01:22:25;48.22;;;17.98;;
75377;SDS011;63959;51.960;5.886;2022-12-18T01:24:58;50.78;;;20.90;;
75377;SDS011;63959;51.960;5.886;2022-12-18T01:27:32;47.28;;;18.35;;
75377;SDS011;63959;51.960;5.886;2022-12-18T01:30:16;47.58;;;19.30;;
75377;SDS011;63959;51.960;5.886;2022-12-18T01:33:03;54.25;;;20.23;;
75377;SDS011;63959;51.960;5.886;2022-12-18T01:35:41;53.85;;;20.90;;
75377;SDS011;63959;51.960;5.886;2022-12-18T01:38:10;37.45;;;14.52;;
75377;SDS011;63959;51.960;5.886;2022-12-18T01:40:41;55.67;;;22.95;;
75377;SDS011;63959;51.960;5.886;2022-12-18T01:43:13;48.30;;;17.30;;
75377;SDS011;63959;51.960;5.886;2022-12-18T01:45:45;65.22;;;23.25;;
75377;SDS011;63959;51.960;5.886;2022-12-18T01:48:20;50.67;;;19.50;;
75377;SDS011;63959;51.960;5.886;2022-12-18T01:51:06;46.60;;;19.63;;
75377;SDS011;63959;51.960;5.886;2022-12-18T01:53:41;58.80;;;21.20;;
75377;SDS011;63959;51.960;5.886;2022-12-18T01:56:17;46.15;;;18.65;;
75377;SDS011;63959;51.960;5.886;2022-12-18T01:58:54;51.95;;;19.23;;
75377;SDS011;63959;51.960;5.886;2022-12-18T02:01:28;32.60;;;12.68;;
75377;SDS011;63959;51.960;5.886;2022-12-18T02:04:17;40.25;;;16.58;;
75377;SDS011;63959;51.960;5.886;2022-12-18T02:06:48;46.20;;;17.40;;
75377;SDS011;63959;51.960;5.886;2022-12-18T02:09:26;38.85;;;16.83;;
75377;SDS011;63959;51.960;5.886;2022-12-18T02:12:01;45.85;;;16.98;;
75377;SDS011;63959;51.960;5.886;2022-12-18T02:14:59;45.03;;;17.85;;
75377;SDS011;63959;51.960;5.886;2022-12-18T02:17:31;45.05;;;17.52;;
75377;SDS011;63959;51.960;5.886;2022-12-18T02:20:15;46.22;;;17.55;;
75377;SDS011;63959;51.960;5.886;2022-12-18T02:22:48;40.80;;;17.55;;
75377;SDS011;63959;51.960;5.886;2022-12-18T02:28:59;44.85;;;16.27;;
75377;SDS011;63959;51.960;5.886;2022-12-18T02:34:23;50.00;;;18.70;;
75377;SDS011;63959;51.960;5.886;2022-12-18T02:37:14;43.50;;;15.38;;
75377;SDS011;63959;51.960;5.886;2022-12-18T02:40:26;45.38;;;17.52;;
75377;SDS011;63959;51.960;5.886;2022-12-18T02:44:41;45.53;;;17.73;;
75377;SDS011;63959;51.960;5.886;2022-12-18T03:24:58;34.08;;;13.57;;
75377;SDS011;63959;51.960;5.886;2022-12-18T03:34:33;35.67;;;15.88;;
75377;SDS011;63959;51.960;5.886;2022-12-18T03:41:01;42.20;;;16.92;;
75377;SDS011;63959;51.960;5.886;2022-12-18T03:44:14;42.30;;;15.60;;
75377;SDS011;63959;51.960;5.886;2022-12-18T04:46:54;31.13;;;14.02;;
75377;SDS011;63959;51.960;5.886;2022-12-18T08:29:10;21.43;;;9.87;;
75377;SDS011;63959;51.960;5.886;2022-12-18T08:35:08;23.00;;;10.20;;
75377;SDS011;63959;51.960;5.886;2022-12-18T08:37:52;24.13;;;9.52;;
75377;SDS011;63959;51.960;5.886;2022-12-18T08:40:23;22.33;;;9.73;;
75377;SDS011;63959;51.960;5.886;2022-12-18T08:46:36;19.40;;;9.23;;
75377;SDS011;63959;51.960;5.886;2022-12-18T08:49:18;20.75;;;8.45;;
75377;SDS011;63959;51.960;5.886;2022-12-18T08:52:18;17.05;;;7.93;;
75377;SDS011;63959;51.960;5.886;2022-12-18T09:10:44;19.08;;;7.97;;
75377;SDS011;63959;51.960;5.886;2022-12-18T09:13:20;17.92;;;7.53;;
75377;SDS011;63959;51.960;5.886;2022-12-18T09:15:51;19.50;;;7.40;;
75377;SDS011;63959;51.960;5.886;2022-12-18T09:18:23;19.60;;;8.60;;
75377;SDS011;63959;51.960;5.886;2022-12-18T09:21:26;17.65;;;8.25;;
75377;SDS011;63959;51.960;5.886;2022-12-18T09:24:02;17.70;;;7.80;;
75377;SDS011;63959;51.960;5.886;2022-12-18T09:26:41;17.55;;;7.43;;
75377;SDS011;63959;51.960;5.886;2022-12-18T09:29:16;17.45;;;7.43;;
75377;SDS011;63959;51.960;5.886;2022-12-18T09:32:03;15.90;;;7.13;;
75377;SDS011;63959;51.960;5.886;2022-12-18T09:34:51;15.75;;;7.35;;
75377;SDS011;63959;51.960;5.886;2022-12-18T09:37:20;17.05;;;6.88;;
75377;SDS011;63959;51.960;5.886;2022-12-18T09:39:56;17.30;;;7.10;;
75377;SDS011;63959;51.960;5.886;2022-12-18T09:42:28;17.30;;;7.05;;
75377;SDS011;63959;51.960;5.886;2022-12-18T09:45:00;17.38;;;8.10;;
75377;SDS011;63959;51.960;5.886;2022-12-18T09:47:29;15.10;;;7.30;;
75377;SDS011;63959;51.960;5.886;2022-12-18T09:50:04;13.18;;;6.30;;
75377;SDS011;63959;51.960;5.886;2022-12-18T09:52:34;14.57;;;6.78;;
75377;SDS011;63959;51.960;5.886;2022-12-18T09:55:05;17.17;;;7.38;;
75377;SDS011;63959;51.960;5.886;2022-12-18T09:57:44;17.90;;;7.68;;
75377;SDS011;63959;51.960;5.886;2022-12-18T10:00:21;16.23;;;7.00;;
75377;SDS011;63959;51.960;5.886;2022-12-18T10:02:51;15.65;;;7.90;;
75377;SDS011;63959;51.960;5.886;2022-12-18T10:05:27;16.10;;;7.20;;
75377;SDS011;63959;51.960;5.886;2022-12-18T10:08:13;14.75;;;7.40;;
75377;SDS011;63959;51.960;5.886;2022-12-18T10:10:46;16.40;;;7.50;;
75377;SDS011;63959;51.960;5.886;2022-12-18T10:13:23;16.92;;;7.90;;
75377;SDS011;63959;51.960;5.886;2022-12-18T10:16:01;16.17;;;7.63;;
75377;SDS011;63959;51.960;5.886;2022-12-18T10:18:59;16.08;;;7.07;;
75377;SDS011;63959;51.960;5.886;2022-12-18T10:21:32;15.40;;;7.32;;
75377;SDS011;63959;51.960;5.886;2022-12-18T10:24:02;16.27;;;7.18;;
75377;SDS011;63959;51.960;5.886;2022-12-18T10:26:38;16.85;;;7.50;;
75377;SDS011;63959;51.960;5.886;2022-12-18T10:29:13;17.13;;;7.53;;
75377;SDS011;63959;51.960;5.886;2022-12-18T10:31:47;16.92;;;7.30;;
75377;SDS011;63959;51.960;5.886;2022-12-18T10:34:17;17.73;;;8.00;;
75377;SDS011;63959;51.960;5.886;2022-12-18T10:36:46;14.73;;;6.63;;
75377;SDS011;63959;51.960;5.886;2022-12-18T10:39:19;17.85;;;7.85;;
75377;SDS011;63959;51.960;5.886;2022-12-18T10:41:49;16.77;;;7.72;;
75377;SDS011;63959;51.960;5.886;2022-12-18T10:44:27;15.43;;;7.38;;
75377;SDS011;63959;51.960;5.886;2022-12-18T10:47:02;14.02;;;6.70;;
75377;SDS011;63959;51.960;5.886;2022-12-18T10:49:47;18.88;;;7.75;;
75377;SDS011;63959;51.960;5.886;2022-12-18T10:52:19;14.43;;;7.05;;
75377;SDS011;63959;51.960;5.886;2022-12-18T10:54:49;17.52;;;7.70;;
75377;SDS011;63959;51.960;5.886;2022-12-18T10:57:32;18.33;;;7.78;;
75377;SDS011;63959;51.960;5.886;2022-12-18T11:02:48;16.35;;;7.43;;
75377;SDS011;63959;51.960;5.886;2022-12-18T11:05:27;17.83;;;8.45;;
75377;SDS011;63959;51.960;5.886;2022-12-18T11:07:59;16.55;;;7.22;;
75377;SDS011;63959;51.960;5.886;2022-12-18T11:10:30;19.63;;;8.13;;
75377;SDS011;63959;51.960;5.886;2022-12-18T11:13:14;18.52;;;8.02;;
75377;SDS011;63959;51.960;5.886;2022-12-18T11:15:45;17.13;;;8.70;;
75377;SDS011;63959;51.960;5.886;2022-12-18T11:18:24;16.08;;;7.45;;
75377;SDS011;63959;51.960;5.886;2022-12-18T11:20:54;18.80;;;8.27;;
75377;SDS011;63959;51.960;5.886;2022-12-18T11:23:28;20.20;;;7.53;;
75377;SDS011;63959;51.960;5.886;2022-12-18T11:26:02;17.00;;;7.40;;
75377;SDS011;63959;51.960;5.886;2022-12-18T11:28:35;21.02;;;8.73;;
75377;SDS011;63959;51.960;5.886;2022-12-18T11:34:06;17.17;;;8.65;;
75377;SDS011;63959;51.960;5.886;2022-12-18T11:36:42;19.60;;;8.55;;
75377;SDS011;63959;51.960;5.886;2022-12-18T11:39:13;20.50;;;8.98;;
75377;SDS011;63959;51.960;5.886;2022-12-18T11:41:45;18.90;;;8.82;;
75377;SDS011;63959;51.960;5.886;2022-12-18T11:44:28;18.13;;;8.25;;
75377;SDS011;63959;51.960;5.886;2022-12-18T11:47:01;16.98;;;8.05;;
75377;SDS011;63959;51.960;5.886;2022-12-18T11:49:36;15.95;;;7.90;;
75377;SDS011;63959;51.960;5.886;2022-12-18T11:52:09;16.80;;;8.40;;
75377;SDS011;63959;51.960;5.886;2022-12-18T11:54:40;16.35;;;7.43;;
75377;SDS011;63959;51.960;5.886;2022-12-18T11:57:10;17.50;;;8.45;;
75377;SDS011;63959;51.960;5.886;2022-12-18T11:59:44;19.10;;;7.90;;
75377;SDS011;63959;51.960;5.886;2022-12-18T12:02:29;16.85;;;7.57;;
75377;SDS011;63959;51.960;5.886;2022-12-18T12:07:57;16.27;;;7.75;;
75377;SDS011;63959;51.960;5.886;2022-12-18T12:10:32;16.45;;;7.90;;
75377;SDS011;63959;51.960;5.886;2022-12-18T12:13:11;17.30;;;8.50;;
75377;SDS011;63959;51.960;5.886;2022-12-18T12:15:42;17.05;;;8.18;;
75377;SDS011;63959;51.960;5.886;2022-12-18T12:18:19;16.63;;;8.27;;
75377;SDS011;63959;51.960;5.886;2022-12-18T12:20:53;19.55;;;8.93;;
75377;SDS011;63959;51.960;5.886;2022-12-18T12:23:32;16.88;;;7.85;;
75377;SDS011;63959;51.960;5.886;2022-12-18T12:26:04;20.30;;;9.63;;
75377;SDS011;63959;51.960;5.886;2022-12-18T12:31:23;18.67;;;8.13;;
75377;SDS011;63959;51.960;5.886;2022-12-18T12:33:56;18.10;;;7.90;;
75377;SDS011;63959;51.960;5.886;2022-12-18T12:36:31;17.55;;;8.20;;
75377;SDS011;63959;51.960;5.886;2022-12-18T12:39:05;18.63;;;8.27;;
75377;SDS011;63959;51.960;5.886;2022-12-18T12:41:34;20.52;;;8.68;;
75377;SDS011;63959;51.960;5.886;2022-12-18T12:44:17;16.90;;;7.78;;
75377;SDS011;63959;51.960;5.886;2022-12-18T12:46:48;20.23;;;8.93;;
75377;SDS011;63959;51.960;5.886;2022-12-18T12:49:18;17.35;;;7.55;;
75377;SDS011;63959;51.960;5.886;2022-12-18T12:51:50;16.40;;;7.35;;
75377;SDS011;63959;51.960;5.886;2022-12-18T12:54:24;17.25;;;8.18;;
75377;SDS011;63959;51.960;5.886;2022-12-18T12:56:58;16.77;;;7.80;;
75377;SDS011;63959;51.960;5.886;2022-12-18T12:59:34;18.83;;;7.85;;
75377;SDS011;63959;51.960;5.886;2022-12-18T13:02:05;16.15;;;7.53;;
75377;SDS011;63959;51.960;5.886;2022-12-18T13:04:39;19.98;;;8.07;;
75377;SDS011;63959;51.960;5.886;2022-12-18T13:07:12;18.23;;;8.63;;
75377;SDS011;63959;51.960;5.886;2022-12-18T13:12:30;17.67;;;8.50;;
75377;SDS011;63959;51.960;5.886;2022-12-18T13:15:12;18.10;;;8.95;;
75377;SDS011;63959;51.960;5.886;2022-12-18T13:17:42;18.30;;;8.82;;
75377;SDS011;63959;51.960;5.886;2022-12-18T13:20:11;17.08;;;8.23;;
75377;SDS011;63959;51.960;5.886;2022-12-18T13:22:42;18.40;;;9.02;;
75377;SDS011;63959;51.960;5.886;2022-12-18T13:28:03;16.35;;;8.02;;
75377;SDS011;63959;51.960;5.886;2022-12-18T13:30:47;18.25;;;8.43;;
75377;SDS011;63959;51.960;5.886;2022-12-18T13:36:01;17.90;;;8.77;;
75377;SDS011;63959;51.960;5.886;2022-12-18T13:38:33;17.30;;;8.25;;
75377;SDS011;63959;51.960;5.886;2022-12-18T13:41:03;16.05;;;7.50;;
75377;SDS011;63959;51.960;5.886;2022-12-18T13:43:41;21.27;;;9.27;;
75377;SDS011;63959;51.960;5.886;2022-12-18T13:46:18;17.25;;;8.45;;
75377;SDS011;63959;51.960;5.886;2022-12-18T13:48:49;18.58;;;8.18;;
75377;SDS011;63959;51.960;5.886;2022-12-18T13:51:29;17.65;;;8.32;;
75377;SDS011;63959;51.960;5.886;2022-12-18T13:54:15;19.42;;;9.02;;
75377;SDS011;63959;51.960;5.886;2022-12-18T13:56:46;21.83;;;8.70;;
75377;SDS011;63959;51.960;5.886;2022-12-18T13:59:19;17.20;;;7.68;;
75377;SDS011;63959;51.960;5.886;2022-12-18T14:01:50;20.42;;;9.05;;
75377;SDS011;63959;51.960;5.886;2022-12-18T14:04:20;18.70;;;8.68;;
75377;SDS011;63959;51.960;5.886;2022-12-18T14:06:51;17.88;;;9.30;;
75377;SDS011;63959;51.960;5.886;2022-12-18T14:09:22;16.52;;;8.15;;
75377;SDS011;63959;51.960;5.886;2022-12-18T14:11:52;16.08;;;7.47;;
75377;SDS011;63959;51.960;5.886;2022-12-18T14:14:46;20.60;;;8.70;;
75377;SDS011;63959;51.960;5.886;2022-12-18T14:17:15;18.23;;;8.25;;
75377;SDS011;63959;51.960;5.886;2022-12-18T14:19:45;20.67;;;9.77;;
75377;SDS011;63959;51.960;5.886;2022-12-18T14:22:15;19.48;;;7.68;;
75377;SDS011;63959;51.960;5.886;2022-12-18T14:24:44;22.80;;;9.45;;
75377;SDS011;63959;51.960;5.886;2022-12-18T14:27:24;20.63;;;9.13;;
75377;SDS011;63959;51.960;5.886;2022-12-18T14:29:56;18.60;;;9.75;;
75377;SDS011;63959;51.960;5.886;2022-12-18T14:32:25;20.45;;;9.50;;
75377;SDS011;63959;51.960;5.886;2022-12-18T14:34:54;20.88;;;9.55;;
75377;SDS011;63959;51.960;5.886;2022-12-18T14:37:23;18.27;;;9.00;;
75377;SDS011;63959;51.960;5.886;2022-12-18T14:39:53;18.38;;;8.73;;
75377;SDS011;63959;51.960;5.886;2022-12-18T14:42:23;20.33;;;9.23;;
75377;SDS011;63959;51.960;5.886;2022-12-18T14:47:42;21.58;;;9.60;;
75377;SDS011;63959;51.960;5.886;2022-12-18T14:50:12;18.52;;;9.93;;
75377;SDS011;63959;51.960;5.886;2022-12-18T14:52:42;18.77;;;9.70;;
75377;SDS011;63959;51.960;5.886;2022-12-18T14:55:14;18.27;;;8.45;;
75377;SDS011;63959;51.960;5.886;2022-12-18T14:57:43;19.50;;;8.57;;
75377;SDS011;63959;51.960;5.886;2022-12-18T15:00:15;21.25;;;9.57;;
75377;SDS011;63959;51.960;5.886;2022-12-18T15:02:47;20.90;;;9.75;;
75377;SDS011;63959;51.960;5.886;2022-12-18T15:05:17;21.98;;;10.27;;
75377;SDS011;63959;51.960;5.886;2022-12-18T15:07:47;23.33;;;9.82;;
75377;SDS011;63959;51.960;5.886;2022-12-18T15:10:16;19.92;;;9.27;;
75377;SDS011;63959;51.960;5.886;2022-12-18T15:12:46;19.67;;;9.10;;
75377;SDS011;63959;51.960;5.886;2022-12-18T15:18:09;17.73;;;8.57;;
75377;SDS011;63959;51.960;5.886;2022-12-18T15:20:43;21.50;;;9.73;;
75377;SDS011;63959;51.960;5.886;2022-12-18T15:23:14;17.05;;;7.93;;
75377;SDS011;63959;51.960;5.886;2022-12-18T15:25:43;19.40;;;8.68;;
75377;SDS011;63959;51.960;5.886;2022-12-18T15:28:17;17.42;;;7.85;;
75377;SDS011;63959;51.960;5.886;2022-12-18T15:30:57;20.20;;;9.32;;
75377;SDS011;63959;51.960;5.886;2022-12-18T15:33:30;21.42;;;8.68;;
75377;SDS011;63959;51.960;5.886;2022-12-18T15:35:59;18.65;;;8.93;;
75377;SDS011;63959;51.960;5.886;2022-12-18T15:38:28;19.33;;;9.95;;
75377;SDS011;63959;51.960;5.886;2022-12-18T15:40:57;19.73;;;8.90;;
75377;SDS011;63959;51.960;5.886;2022-12-18T15:43:29;21.52;;;9.85;;
75377;SDS011;63959;51.960;5.886;2022-12-18T15:46:03;20.40;;;8.38;;
75377;SDS011;63959;51.960;5.886;2022-12-18T15:48:35;20.67;;;10.05;;
75377;SDS011;63959;51.960;5.886;2022-12-18T15:51:09;19.98;;;8.88;;
75377;SDS011;63959;51.960;5.886;2022-12-18T15:53:40;17.80;;;8.98;;
75377;SDS011;63959;51.960;5.886;2022-12-18T15:56:09;23.77;;;9.95;;
75377;SDS011;63959;51.960;5.886;2022-12-18T15:58:51;17.33;;;8.10;;
75377;SDS011;63959;51.960;5.886;2022-12-18T16:01:19;23.02;;;10.32;;
75377;SDS011;63959;51.960;5.886;2022-12-18T16:03:51;19.50;;;8.30;;
75377;SDS011;63959;51.960;5.886;2022-12-18T16:06:20;23.33;;;10.27;;
75377;SDS011;63959;51.960;5.886;2022-12-18T16:08:54;20.65;;;8.70;;
75377;SDS011;63959;51.960;5.886;2022-12-18T16:11:27;21.17;;;9.38;;
75377;SDS011;63959;51.960;5.886;2022-12-18T16:14:08;20.35;;;9.70;;
75377;SDS011;63959;51.960;5.886;2022-12-18T16:16:41;25.52;;;10.63;;
75377;SDS011;63959;51.960;5.886;2022-12-18T16:19:13;26.40;;;10.95;;
75377;SDS011;63959;51.960;5.886;2022-12-18T16:21:42;24.45;;;10.20;;
75377;SDS011;63959;51.960;5.886;2022-12-18T16:24:13;21.52;;;10.48;;
75377;SDS011;63959;51.960;5.886;2022-12-18T16:26:47;27.27;;;12.25;;
75377;SDS011;63959;51.960;5.886;2022-12-18T16:29:17;22.05;;;10.70;;
75377;SDS011;63959;51.960;5.886;2022-12-18T16:31:55;22.88;;;10.40;;
75377;SDS011;63959;51.960;5.886;2022-12-18T16:34:27;24.52;;;11.90;;
75377;SDS011;63959;51.960;5.886;2022-12-18T16:36:57;21.13;;;10.75;;
75377;SDS011;63959;51.960;5.886;2022-12-18T16:39:27;20.83;;;10.20;;
75377;SDS011;63959;51.960;5.886;2022-12-18T16:41:56;22.05;;;10.20;;
75377;SDS011;63959;51.960;5.886;2022-12-18T16:44:25;23.35;;;10.98;;
75377;SDS011;63959;51.960;5.886;2022-12-18T16:46:54;26.88;;;11.75;;
75377;SDS011;63959;51.960;5.886;2022-12-18T16:49:29;25.17;;;11.07;;
75377;SDS011;63959;51.960;5.886;2022-12-18T16:51:58;21.05;;;11.13;;
75377;SDS011;63959;51.960;5.886;2022-12-18T16:54:28;24.85;;;11.40;;
75377;SDS011;63959;51.960;5.886;2022-12-18T16:57:03;24.48;;;11.43;;
75377;SDS011;63959;51.960;5.886;2022-12-18T16:59:33;21.70;;;9.77;;
75377;SDS011;63959;51.960;5.886;2022-12-18T17:02:04;19.40;;;9.15;;
75377;SDS011;63959;51.960;5.886;2022-12-18T17:04:36;24.70;;;11.82;;
75377;SDS011;63959;51.960;5.886;2022-12-18T17:07:05;24.83;;;11.68;;
75377;SDS011;63959;51.960;5.886;2022-12-18T17:09:34;24.90;;;11.82;;
75377;SDS011;63959;51.960;5.886;2022-12-18T17:12:03;24.80;;;12.18;;
75377;SDS011;63959;51.960;5.886;2022-12-18T17:14:33;24.73;;;11.05;;
75377;SDS011;63959;51.960;5.886;2022-12-18T17:17:04;28.38;;;12.60;;
75377;SDS011;63959;51.960;5.886;2022-12-18T17:19:36;24.63;;;11.57;;
75377;SDS011;63959;51.960;5.886;2022-12-18T17:22:05;29.55;;;12.43;;
75377;SDS011;63959;51.960;5.886;2022-12-18T17:24:34;28.33;;;12.85;;
75377;SDS011;63959;51.960;5.886;2022-12-18T17:27:03;22.50;;;11.35;;
75377;SDS011;63959;51.960;5.886;2022-12-18T17:29:33;26.50;;;11.63;;
75377;SDS011;63959;51.960;5.886;2022-12-18T17:32:02;27.10;;;11.55;;
75377;SDS011;63959;51.960;5.886;2022-12-18T17:34:32;21.55;;;10.43;;
75377;SDS011;63959;51.960;5.886;2022-12-18T17:37:04;27.67;;;12.40;;
75377;SDS011;63959;51.960;5.886;2022-12-18T17:42:07;19.13;;;8.77;;
75377;SDS011;63959;51.960;5.886;2022-12-18T17:44:36;26.63;;;12.23;;
75377;SDS011;63959;51.960;5.886;2022-12-18T17:47:05;23.77;;;10.65;;
75377;SDS011;63959;51.960;5.886;2022-12-18T17:49:36;27.42;;;11.65;;
75377;SDS011;63959;51.960;5.886;2022-12-18T17:52:13;27.88;;;11.85;;
75377;SDS011;63959;51.960;5.886;2022-12-18T17:54:51;26.40;;;12.23;;
75377;SDS011;63959;51.960;5.886;2022-12-18T17:57:20;27.83;;;13.50;;
75377;SDS011;63959;51.960;5.886;2022-12-18T17:59:50;23.63;;;10.88;;
75377;SDS011;63959;51.960;5.886;2022-12-18T18:02:19;27.75;;;11.50;;
75377;SDS011;63959;51.960;5.886;2022-12-18T18:04:47;25.52;;;11.10;;
75377;SDS011;63959;51.960;5.886;2022-12-18T18:07:19;28.25;;;12.57;;
75377;SDS011;63959;51.960;5.886;2022-12-18T18:09:48;29.05;;;13.95;;
75377;SDS011;63959;51.960;5.886;2022-12-18T18:12:17;28.30;;;12.55;;
75377;SDS011;63959;51.960;5.886;2022-12-18T18:14:58;22.83;;;11.07;;
75377;SDS011;63959;51.960;5.886;2022-12-18T18:17:27;25.95;;;12.07;;
75377;SDS011;63959;51.960;5.886;2022-12-18T18:19:56;29.75;;;13.90;;
75377;SDS011;63959;51.960;5.886;2022-12-18T18:22:27;28.50;;;13.45;;
75377;SDS011;63959;51.960;5.886;2022-12-18T18:24:56;24.65;;;10.27;;
75377;SDS011;63959;51.960;5.886;2022-12-18T18:27:28;28.83;;;13.52;;
75377;SDS011;63959;51.960;5.886;2022-12-18T18:29:58;26.38;;;12.55;;
75377;SDS011;63959;51.960;5.886;2022-12-18T18:32:26;28.97;;;13.00;;
75377;SDS011;63959;51.960;5.886;2022-12-18T18:34:59;26.10;;;12.13;;
75377;SDS011;63959;51.960;5.886;2022-12-18T18:37:30;28.40;;;13.32;;
75377;SDS011;63959;51.960;5.886;2022-12-18T18:39:59;29.73;;;13.23;;
75377;SDS011;63959;51.960;5.886;2022-12-18T18:42:28;26.17;;;13.70;;
75377;SDS011;63959;51.960;5.886;2022-12-18T18:44:57;31.00;;;14.05;;
75377;SDS011;63959;51.960;5.886;2022-12-18T18:47:27;32.20;;;13.80;;
75377;SDS011;63959;51.960;5.886;2022-12-18T18:49:56;24.85;;;11.70;;
75377;SDS011;63959;51.960;5.886;2022-12-18T18:52:25;25.00;;;11.43;;
75377;SDS011;63959;51.960;5.886;2022-12-18T18:54:59;28.73;;;13.38;;
75377;SDS011;63959;51.960;5.886;2022-12-18T18:57:28;26.00;;;12.82;;
75377;SDS011;63959;51.960;5.886;2022-12-18T19:00:00;27.10;;;12.23;;
75377;SDS011;63959;51.960;5.886;2022-12-18T19:02:29;26.75;;;10.63;;
75377;SDS011;63959;51.960;5.886;2022-12-18T19:05:00;30.85;;;12.68;;
75377;SDS011;63959;51.960;5.886;2022-12-18T19:07:32;27.67;;;12.00;;
75377;SDS011;63959;51.960;5.886;2022-12-18T19:10:04;25.15;;;11.00;;
75377;SDS011;63959;51.960;5.886;2022-12-18T19:12:33;30.88;;;14.32;;
75377;SDS011;63959;51.960;5.886;2022-12-18T19:15:14;28.85;;;13.15;;
75377;SDS011;63959;51.960;5.886;2022-12-18T19:17:43;25.95;;;11.57;;
75377;SDS011;63959;51.960;5.886;2022-12-18T19:20:12;24.73;;;11.95;;
75377;SDS011;63959;51.960;5.886;2022-12-18T19:22:41;30.92;;;13.70;;
75377;SDS011;63959;51.960;5.886;2022-12-18T19:25:13;27.08;;;11.20;;
75377;SDS011;63959;51.960;5.886;2022-12-18T19:27:41;34.90;;;15.02;;
75377;SDS011;63959;51.960;5.886;2022-12-18T19:30:11;29.75;;;12.52;;
75377;SDS011;63959;51.960;5.886;2022-12-18T19:32:40;31.05;;;14.50;;
75377;SDS011;63959;51.960;5.886;2022-12-18T19:35:09;30.90;;;14.13;;
75377;SDS011;63959;51.960;5.886;2022-12-18T19:37:38;27.10;;;11.63;;
75377;SDS011;63959;51.960;5.886;2022-12-18T19:40:07;29.58;;;12.73;;
75377;SDS011;63959;51.960;5.886;2022-12-18T19:42:42;28.13;;;13.05;;
75377;SDS011;63959;51.960;5.886;2022-12-18T19:45:11;34.70;;;15.85;;
75377;SDS011;63959;51.960;5.886;2022-12-18T19:47:41;30.90;;;13.43;;
75377;SDS011;63959;51.960;5.886;2022-12-18T19:50:09;29.45;;;13.25;;
75377;SDS011;63959;51.960;5.886;2022-12-18T19:52:42;31.23;;;13.88;;
75377;SDS011;63959;51.960;5.886;2022-12-18T19:55:12;30.67;;;13.15;;
75377;SDS011;63959;51.960;5.886;2022-12-18T19:57:43;26.60;;;12.32;;
75377;SDS011;63959;51.960;5.886;2022-12-18T20:00:12;29.52;;;13.85;;
75377;SDS011;63959;51.960;5.886;2022-12-18T20:02:41;26.10;;;12.73;;
75377;SDS011;63959;51.960;5.886;2022-12-18T20:05:10;28.48;;;12.82;;
75377;SDS011;63959;51.960;5.886;2022-12-18T20:07:39;28.70;;;13.02;;
75377;SDS011;63959;51.960;5.886;2022-12-18T20:10:10;27.08;;;12.57;;
75377;SDS011;63959;51.960;5.886;2022-12-18T20:12:43;29.08;;;12.73;;
75377;SDS011;63959;51.960;5.886;2022-12-18T20:15:14;27.92;;;12.90;;
75377;SDS011;63959;51.960;5.886;2022-12-18T20:17:42;30.98;;;14.55;;
75377;SDS011;63959;51.960;5.886;2022-12-18T20:20:11;32.50;;;14.68;;
75377;SDS011;63959;51.960;5.886;2022-12-18T20:22:40;33.30;;;15.52;;
75377;SDS011;63959;51.960;5.886;2022-12-18T20:25:09;33.78;;;15.45;;
75377;SDS011;63959;51.960;5.886;2022-12-18T20:27:38;30.30;;;13.68;;
75377;SDS011;63959;51.960;5.886;2022-12-18T20:30:10;27.05;;;13.07;;
75377;SDS011;63959;51.960;5.886;2022-12-18T20:32:39;33.65;;;15.70;;
75377;SDS011;63959;51.960;5.886;2022-12-18T20:35:08;32.83;;;14.30;;
75377;SDS011;63959;51.960;5.886;2022-12-18T20:37:36;36.15;;;17.02;;
75377;SDS011;63959;51.960;5.886;2022-12-18T20:40:06;30.98;;;13.25;;
75377;SDS011;63959;51.960;5.886;2022-12-18T20:42:35;25.13;;;11.00;;
75377;SDS011;63959;51.960;5.886;2022-12-18T20:45:04;28.08;;;12.10;;
75377;SDS011;63959;51.960;5.886;2022-12-18T20:47:36;28.73;;;12.15;;
75377;SDS011;63959;51.960;5.886;2022-12-18T20:50:05;35.08;;;14.88;;
75377;SDS011;63959;51.960;5.886;2022-12-18T20:52:34;34.17;;;15.43;;
75377;SDS011;63959;51.960;5.886;2022-12-18T20:55:03;28.83;;;12.60;;
75377;SDS011;63959;51.960;5.886;2022-12-18T20:57:32;28.48;;;13.27;;
75377;SDS011;63959;51.960;5.886;2022-12-18T21:00:01;37.88;;;16.63;;
75377;SDS011;63959;51.960;5.886;2022-12-18T21:02:29;33.20;;;14.88;;
75377;SDS011;63959;51.960;5.886;2022-12-18T21:05:01;36.70;;;16.15;;
75377;SDS011;63959;51.960;5.886;2022-12-18T21:07:30;36.55;;;16.23;;
75377;SDS011;63959;51.960;5.886;2022-12-18T21:09:59;36.15;;;17.35;;
75377;SDS011;63959;51.960;5.886;2022-12-18T21:12:28;36.10;;;16.77;;
75377;SDS011;63959;51.960;5.886;2022-12-18T21:15:01;38.10;;;16.58;;
75377;SDS011;63959;51.960;5.886;2022-12-18T21:17:30;40.85;;;16.45;;
75377;SDS011;63959;51.960;5.886;2022-12-18T21:20:01;38.35;;;16.52;;
75377;SDS011;63959;51.960;5.886;2022-12-18T21:22:30;34.55;;;16.38;;
75377;SDS011;63959;51.960;5.886;2022-12-18T21:24:59;36.05;;;15.65;;
75377;SDS011;63959;51.960;5.886;2022-12-18T21:27:30;35.70;;;15.38;;
75377;SDS011;63959;51.960;5.886;2022-12-18T21:29:58;38.97;;;16.77;;